< Typhoon 197608 1976 Season Typhoon 197610 >
Typhoon 197609 (THERESE)
General InformationTrack Information on Google Maps || NewsDisaster Info.ResourceGoogle EarthGE AnimationAtom FeedGeoJSON
Detalied Best Track (Time Zone = UTC)
Year Month Day Hour Lat. Long. Pressure (hPa) Wind (kt) Class Image Chart
1976 7 9 00 8.0 161.0 1008 0 2 -- Chart
1976 7 9 06 8.2 160.3 1004 0 2 -- Chart
1976 7 9 12 8.4 159.8 1004 0 2 -- Chart
1976 7 9 18 8.7 159.2 1004 0 2 -- Chart
1976 7 10 00 8.8 158.4 1004 0 2 -- Chart
1976 7 10 06 9.0 157.8 1004 0 2 -- Chart
1976 7 10 12 9.2 157.0 1004 0 2 -- Chart
1976 7 10 18 9.3 156.4 1002 0 2 -- Chart
1976 7 11 00 9.4 155.8 994 0 9 -- Chart
1976 7 11 06 9.6 154.8 992 0 9 -- Chart
1976 7 11 12 9.7 153.8 992 0 9 -- Chart
1976 7 11 18 9.8 153.2 985 0 9 -- Chart
1976 7 12 00 10.0 152.2 980 0 9 -- Chart
1976 7 12 06 10.5 150.6 980 0 9 -- Chart
1976 7 12 12 11.0 149.8 960 0 9 -- Chart
1976 7 12 18 11.3 149.3 945 0 9 -- Chart
1976 7 13 00 11.8 148.8 930 0 9 -- Chart
1976 7 13 06 12.6 148.0 910 0 9 -- Chart
1976 7 13 12 13.4 147.4 905 0 9 -- Chart
1976 7 13 18 15.0 146.7 905 0 9 -- Chart
1976 7 14 00 16.2 145.7 910 0 9 -- Chart
1976 7 14 06 17.7 144.2 915 0 9 -- Chart
1976 7 14 12 18.8 142.8 920 0 9 -- Chart
1976 7 14 18 19.9 141.1 920 0 9 -- Chart
1976 7 15 00 20.7 139.8 925 0 9 -- Chart
1976 7 15 06 21.5 138.3 925 0 9 -- Chart
1976 7 15 12 22.3 136.8 935 0 9 -- Chart
1976 7 15 18 22.8 135.8 940 0 9 -- Chart
1976 7 16 00 23.4 134.8 940 0 9 -- Chart
1976 7 16 06 24.2 133.7 945 0 9 -- Chart
1976 7 16 12 24.8 132.4 945 0 9 -- Chart
1976 7 16 18 25.4 131.3 945 0 9 -- Chart
1976 7 17 00 26.2 130.2 950 0 9 -- Chart
1976 7 17 06 27.0 129.3 950 0 9 -- Chart
1976 7 17 12 27.8 128.7 950 0 9 -- Chart
1976 7 17 18 28.8 128.2 950 0 9 -- Chart
1976 7 18 00 29.7 128.2 960 0 9 -- Chart
1976 7 18 06 30.6 128.2 960 0 9 -- Chart
1976 7 18 12 31.5 128.5 960 0 9 -- Chart
1976 7 18 18 32.2 128.8 960 0 9 -- Chart
1976 7 19 00 32.3 129.2 970 0 9 -- Chart
1976 7 19 06 32.7 129.7 985 0 9 -- Chart
1976 7 19 12 32.4 129.8 996 0 9 -- Chart
1976 7 19 18 32.1 129.9 1000 0 2 -- Chart
1976 7 20 00 32.0 129.5 1004 0 2 -- Chart
1976 7 20 06 32.0 129.0 1006 0 2 -- Chart
1976 7 20 12 32.0 128.4 1008 0 2 -- Chart
1976 7 20 18 32.0 127.8 1008 0 2 -- Chart
1976 7 21 00 32.0 127.0 1009 0 6 -- Chart
Japan Meteorological Agency Best Track Data | Correction Date : 2013-03-19
< Typhoon 197608 1976 Season Typhoon 197610 >

Help